sensor_id;sensor_type;location;lat;lon;timestamp;temperature;humidity
75281;HTU21D;63874;47.230;39.620;2023-06-19T00:01:24;19.55;52.56
75281;HTU21D;63874;47.230;39.620;2023-06-19T00:03:50;19.48;52.59
75281;HTU21D;63874;47.230;39.620;2023-06-19T00:06:16;19.46;52.61
75281;HTU21D;63874;47.230;39.620;2023-06-19T00:08:42;19.42;52.56
75281;HTU21D;63874;47.230;39.620;2023-06-19T00:11:13;19.41;52.42
75281;HTU21D;63874;47.230;39.620;2023-06-19T00:13:39;19.39;52.36
75281;HTU21D;63874;47.230;39.620;2023-06-19T00:16:07;19.35;52.30
75281;HTU21D;63874;47.230;39.620;2023-06-19T00:18:33;19.32;52.30
75281;HTU21D;63874;47.230;39.620;2023-06-19T00:21:08;19.28;52.30
75281;HTU21D;63874;47.230;39.620;2023-06-19T00:23:36;19.25;52.14
75281;HTU21D;63874;47.230;39.620;2023-06-19T00:26:03;19.22;52.14
75281;HTU21D;63874;47.230;39.620;2023-06-19T00:28:30;19.16;52.14
75281;HTU21D;63874;47.230;39.620;2023-06-19T00:30:59;19.16;52.11
75281;HTU21D;63874;47.230;39.620;2023-06-19T00:33:25;19.15;52.04
75281;HTU21D;63874;47.230;39.620;2023-06-19T00:35:52;19.13;52.01
75281;HTU21D;63874;47.230;39.620;2023-06-19T00:38:17;19.11;51.94
75281;HTU21D;63874;47.230;39.620;2023-06-19T00:40:43;19.10;51.79
75281;HTU21D;63874;47.230;39.620;2023-06-19T00:43:09;19.08;51.77
75281;HTU21D;63874;47.230;39.620;2023-06-19T00:45:38;19.06;51.74
75281;HTU21D;63874;47.230;39.620;2023-06-19T00:48:05;19.00;51.85
75281;HTU21D;63874;47.230;39.620;2023-06-19T00:50:31;18.98;51.91
75281;HTU21D;63874;47.230;39.620;2023-06-19T00:52:58;18.95;51.88
75281;HTU21D;63874;47.230;39.620;2023-06-19T00:55:28;18.92;51.90
75281;HTU21D;63874;47.230;39.620;2023-06-19T00:57:55;18.87;51.95
75281;HTU21D;63874;47.230;39.620;2023-06-19T01:00:21;18.85;51.97
75281;HTU21D;63874;47.230;39.620;2023-06-19T01:02:47;18.80;52.07
75281;HTU21D;63874;47.230;39.620;2023-06-19T01:05:14;18.74;52.09
75281;HTU21D;63874;47.230;39.620;2023-06-19T01:08:03;18.74;52.02
75281;HTU21D;63874;47.230;39.620;2023-06-19T01:11:00;18.70;52.00
75281;HTU21D;63874;47.230;39.620;2023-06-19T01:13:44;18.67;52.02
75281;HTU21D;63874;47.230;39.620;2023-06-19T01:16:12;18.61;52.19
75281;HTU21D;63874;47.230;39.620;2023-06-19T01:18:42;18.56;52.28
75281;HTU21D;63874;47.230;39.620;2023-06-19T01:21:11;18.53;52.29
75281;HTU21D;63874;47.230;39.620;2023-06-19T01:23:38;18.53;52.29
75281;HTU21D;63874;47.230;39.620;2023-06-19T01:26:07;18.50;52.28
75281;HTU21D;63874;47.230;39.620;2023-06-19T01:28:41;18.46;52.34
75281;HTU21D;63874;47.230;39.620;2023-06-19T01:31:36;18.42;52.37
75281;HTU21D;63874;47.230;39.620;2023-06-19T01:34:07;18.41;52.40
75281;HTU21D;63874;47.230;39.620;2023-06-19T01:36:34;18.33;52.59
75281;HTU21D;63874;47.230;39.620;2023-06-19T01:39:01;18.33;52.61
75281;HTU21D;63874;47.230;39.620;2023-06-19T01:41:30;18.29;52.72
75281;HTU21D;63874;47.230;39.620;2023-06-19T01:43:59;18.24;52.82
75281;HTU21D;63874;47.230;39.620;2023-06-19T01:46:25;18.19;52.98
75281;HTU21D;63874;47.230;39.620;2023-06-19T01:48:51;18.20;52.96
75281;HTU21D;63874;47.230;39.620;2023-06-19T01:51:18;18.15;53.04
75281;HTU21D;63874;47.230;39.620;2023-06-19T01:53:44;18.13;53.03
75281;HTU21D;63874;47.230;39.620;2023-06-19T01:56:11;18.08;53.15
75281;HTU21D;63874;47.230;39.620;2023-06-19T01:58:37;18.08;53.20
75281;HTU21D;63874;47.230;39.620;2023-06-19T02:01:03;18.07;53.17
75281;HTU21D;63874;47.230;39.620;2023-06-19T02:03:28;18.06;53.23
75281;HTU21D;63874;47.230;39.620;2023-06-19T02:05:55;18.02;53.23
75281;HTU21D;63874;47.230;39.620;2023-06-19T02:08:21;18.00;53.27
75281;HTU21D;63874;47.230;39.620;2023-06-19T02:10:46;17.98;53.30
75281;HTU21D;63874;47.230;39.620;2023-06-19T02:13:12;17.96;53.34
75281;HTU21D;63874;47.230;39.620;2023-06-19T02:15:41;17.97;53.35
75281;HTU21D;63874;47.230;39.620;2023-06-19T02:18:08;17.95;53.35
75281;HTU21D;63874;47.230;39.620;2023-06-19T02:20:36;17.95;53.33
75281;HTU21D;63874;47.230;39.620;2023-06-19T02:23:02;17.95;53.32
75281;HTU21D;63874;47.230;39.620;2023-06-19T02:25:29;17.94;53.35
75281;HTU21D;63874;47.230;39.620;2023-06-19T02:27:55;17.94;53.36
75281;HTU21D;63874;47.230;39.620;2023-06-19T02:30:30;17.91;53.34
75281;HTU21D;63874;47.230;39.620;2023-06-19T02:32:55;17.91;53.33
75281;HTU21D;63874;47.230;39.620;2023-06-19T02:35:21;17.90;53.33
75281;HTU21D;63874;47.230;39.620;2023-06-19T02:37:47;17.91;53.17
75281;HTU21D;63874;47.230;39.620;2023-06-19T02:40:13;17.91;53.19
75281;HTU21D;63874;47.230;39.620;2023-06-19T02:42:40;17.89;53.23
75281;HTU21D;63874;47.230;39.620;2023-06-19T02:45:06;17.92;53.13
75281;HTU21D;63874;47.230;39.620;2023-06-19T02:47:33;17.92;53.10
75281;HTU21D;63874;47.230;39.620;2023-06-19T02:49:59;17.94;53.07
75281;HTU21D;63874;47.230;39.620;2023-06-19T02:52:27;17.96;53.07
75281;HTU21D;63874;47.230;39.620;2023-06-19T02:54:53;17.98;53.01
75281;HTU21D;63874;47.230;39.620;2023-06-19T02:57:19;18.03;52.96
75281;HTU21D;63874;47.230;39.620;2023-06-19T02:59:45;18.05;52.89
75281;HTU21D;63874;47.230;39.620;2023-06-19T03:02:11;18.05;52.94
75281;HTU21D;63874;47.230;39.620;2023-06-19T03:04:37;18.06;52.98
75281;HTU21D;63874;47.230;39.620;2023-06-19T03:07:04;18.10;52.92
75281;HTU21D;63874;47.230;39.620;2023-06-19T03:09:43;18.14;52.81
75281;HTU21D;63874;47.230;39.620;2023-06-19T03:12:09;18.15;52.86
75281;HTU21D;63874;47.230;39.620;2023-06-19T03:14:35;18.20;52.76
75281;HTU21D;63874;47.230;39.620;2023-06-19T03:17:01;18.23;52.68
75281;HTU21D;63874;47.230;39.620;2023-06-19T03:19:28;18.28;52.56
75281;HTU21D;63874;47.230;39.620;2023-06-19T03:21:54;18.34;52.43
75281;HTU21D;63874;47.230;39.620;2023-06-19T03:24:22;18.37;52.49
75281;HTU21D;63874;47.230;39.620;2023-06-19T03:26:50;18.42;52.42
75281;HTU21D;63874;47.230;39.620;2023-06-19T03:29:16;18.48;52.39
75281;HTU21D;63874;47.230;39.620;2023-06-19T03:31:53;18.55;52.28
75281;HTU21D;63874;47.230;39.620;2023-06-19T03:34:21;18.56;52.30
75281;HTU21D;63874;47.230;39.620;2023-06-19T03:36:47;18.61;52.22
75281;HTU21D;63874;47.230;39.620;2023-06-19T03:39:13;18.66;52.18
75281;HTU21D;63874;47.230;39.620;2023-06-19T03:41:40;18.68;52.22
75281;HTU21D;63874;47.230;39.620;2023-06-19T03:44:07;18.77;52.20
75281;HTU21D;63874;47.230;39.620;2023-06-19T03:46:33;18.85;52.04
75281;HTU21D;63874;47.230;39.620;2023-06-19T03:49:00;18.92;51.98
75281;HTU21D;63874;47.230;39.620;2023-06-19T03:51:28;18.99;51.97
75281;HTU21D;63874;47.230;39.620;2023-06-19T03:53:54;19.09;51.87
75281;HTU21D;63874;47.230;39.620;2023-06-19T03:56:20;19.16;51.76
75281;HTU21D;63874;47.230;39.620;2023-06-19T03:58:46;19.23;51.66
75281;HTU21D;63874;47.230;39.620;2023-06-19T04:01:12;19.33;51.62
75281;HTU21D;63874;47.230;39.620;2023-06-19T04:03:38;19.42;51.47
75281;HTU21D;63874;47.230;39.620;2023-06-19T04:06:03;19.52;51.37
75281;HTU21D;63874;47.230;39.620;2023-06-19T04:08:29;19.60;51.34
75281;HTU21D;63874;47.230;39.620;2023-06-19T04:10:55;19.69;51.14
75281;HTU21D;63874;47.230;39.620;2023-06-19T04:13:21;19.80;50.95
75281;HTU21D;63874;47.230;39.620;2023-06-19T04:15:47;19.89;50.73
75281;HTU21D;63874;47.230;39.620;2023-06-19T04:18:13;19.97;50.57
75281;HTU21D;63874;47.230;39.620;2023-06-19T04:20:39;20.07;50.35
75281;HTU21D;63874;47.230;39.620;2023-06-19T04:23:06;20.16;50.24
75281;HTU21D;63874;47.230;39.620;2023-06-19T04:25:31;20.22;50.17
75281;HTU21D;63874;47.230;39.620;2023-06-19T04:27:57;20.31;50.05
75281;HTU21D;63874;47.230;39.620;2023-06-19T04:30:23;20.39;49.86
75281;HTU21D;63874;47.230;39.620;2023-06-19T04:32:49;20.47;49.86
75281;HTU21D;63874;47.230;39.620;2023-06-19T04:35:15;20.57;49.78
75281;HTU21D;63874;47.230;39.620;2023-06-19T04:37:43;20.68;49.57
75281;HTU21D;63874;47.230;39.620;2023-06-19T04:40:10;20.79;49.64
75281;HTU21D;63874;47.230;39.620;2023-06-19T04:42:36;20.93;49.11
75281;HTU21D;63874;47.230;39.620;2023-06-19T04:45:04;21.03;48.72
75281;HTU21D;63874;47.230;39.620;2023-06-19T04:47:33;21.11;48.60
75281;HTU21D;63874;47.230;39.620;2023-06-19T04:50:00;21.22;48.42
75281;HTU21D;63874;47.230;39.620;2023-06-19T04:52:26;21.32;48.20
75281;HTU21D;63874;47.230;39.620;2023-06-19T04:54:53;21.42;48.21
75281;HTU21D;63874;47.230;39.620;2023-06-19T04:57:19;21.53;47.82
75281;HTU21D;63874;47.230;39.620;2023-06-19T04:59:47;21.66;47.54
75281;HTU21D;63874;47.230;39.620;2023-06-19T05:02:13;21.76;47.02
75281;HTU21D;63874;47.230;39.620;2023-06-19T05:04:39;21.87;46.83
75281;HTU21D;63874;47.230;39.620;2023-06-19T05:07:08;21.98;46.64
75281;HTU21D;63874;47.230;39.620;2023-06-19T05:09:35;22.08;45.96
75281;HTU21D;63874;47.230;39.620;2023-06-19T05:12:01;22.18;46.11
75281;HTU21D;63874;47.230;39.620;2023-06-19T05:14:27;22.31;45.49
75281;HTU21D;63874;47.230;39.620;2023-06-19T05:16:53;22.42;44.67
75281;HTU21D;63874;47.230;39.620;2023-06-19T05:19:28;22.50;44.77
75281;HTU21D;63874;47.230;39.620;2023-06-19T05:21:54;22.60;44.74
75281;HTU21D;63874;47.230;39.620;2023-06-19T05:24:20;22.69;44.49
75281;HTU21D;63874;47.230;39.620;2023-06-19T05:26:46;22.76;44.16
75281;HTU21D;63874;47.230;39.620;2023-06-19T05:29:12;22.85;44.25
75281;HTU21D;63874;47.230;39.620;2023-06-19T05:31:38;22.96;43.21
75281;HTU21D;63874;47.230;39.620;2023-06-19T05:34:03;23.03;43.00
75281;HTU21D;63874;47.230;39.620;2023-06-19T05:36:29;23.11;42.71
75281;HTU21D;63874;47.230;39.620;2023-06-19T05:38:55;23.18;42.23
75281;HTU21D;63874;47.230;39.620;2023-06-19T05:41:21;23.26;42.23
75281;HTU21D;63874;47.230;39.620;2023-06-19T05:43:47;23.35;42.35
75281;HTU21D;63874;47.230;39.620;2023-06-19T05:46:13;23.46;41.95
75281;HTU21D;63874;47.230;39.620;2023-06-19T05:48:39;23.53;41.38
75281;HTU21D;63874;47.230;39.620;2023-06-19T05:51:05;23.60;41.16
75281;HTU21D;63874;47.230;39.620;2023-06-19T05:53:30;23.69;40.30
75281;HTU21D;63874;47.230;39.620;2023-06-19T05:55:57;23.73;39.86
75281;HTU21D;63874;47.230;39.620;2023-06-19T05:58:23;23.80;39.98
75281;HTU21D;63874;47.230;39.620;2023-06-19T06:00:51;23.86;39.94
75281;HTU21D;63874;47.230;39.620;2023-06-19T06:03:28;23.96;39.94
75281;HTU21D;63874;47.230;39.620;2023-06-19T06:05:55;24.00;38.91
75281;HTU21D;63874;47.230;39.620;2023-06-19T06:08:31;24.03;39.20
75281;HTU21D;63874;47.230;39.620;2023-06-19T06:10:57;24.10;38.84
75281;HTU21D;63874;47.230;39.620;2023-06-19T06:13:23;24.16;38.77
75281;HTU21D;63874;47.230;39.620;2023-06-19T06:15:50;24.23;38.75
75281;HTU21D;63874;47.230;39.620;2023-06-19T06:18:16;24.30;38.45
75281;HTU21D;63874;47.230;39.620;2023-06-19T06:20:42;24.35;38.59
75281;HTU21D;63874;47.230;39.620;2023-06-19T06:23:13;24.45;38.42
75281;HTU21D;63874;47.230;39.620;2023-06-19T06:25:39;24.54;38.01
75281;HTU21D;63874;47.230;39.620;2023-06-19T06:28:05;24.58;37.79
75281;HTU21D;63874;47.230;39.620;2023-06-19T06:30:41;24.64;37.82
75281;HTU21D;63874;47.230;39.620;2023-06-19T06:33:07;24.71;37.61
75281;HTU21D;63874;47.230;39.620;2023-06-19T06:35:33;24.78;37.59
75281;HTU21D;63874;47.230;39.620;2023-06-19T06:38:03;24.83;37.75
75281;HTU21D;63874;47.230;39.620;2023-06-19T06:40:29;24.87;37.28
75281;HTU21D;63874;47.230;39.620;2023-06-19T06:42:55;24.90;37.10
75281;HTU21D;63874;47.230;39.620;2023-06-19T06:45:21;24.94;37.07
75281;HTU21D;63874;47.230;39.620;2023-06-19T06:47:47;24.98;37.27
75281;HTU21D;63874;47.230;39.620;2023-06-19T06:50:13;25.05;37.58
75281;HTU21D;63874;47.230;39.620;2023-06-19T06:52:41;25.13;37.49
75281;HTU21D;63874;47.230;39.620;2023-06-19T06:55:07;25.20;37.49
75281;HTU21D;63874;47.230;39.620;2023-06-19T06:57:33;25.27;37.25
75281;HTU21D;63874;47.230;39.620;2023-06-19T06:59:59;25.31;37.27
75281;HTU21D;63874;47.230;39.620;2023-06-19T07:02:25;25.36;37.23
75281;HTU21D;63874;47.230;39.620;2023-06-19T07:04:51;25.42;36.59
75281;HTU21D;63874;47.230;39.620;2023-06-19T07:07:17;25.46;36.56
75281;HTU21D;63874;47.230;39.620;2023-06-19T07:09:44;25.48;36.11
75281;HTU21D;63874;47.230;39.620;2023-06-19T07:12:09;25.51;35.64
75281;HTU21D;63874;47.230;39.620;2023-06-19T07:14:47;25.49;36.34
75281;HTU21D;63874;47.230;39.620;2023-06-19T07:17:13;25.54;36.11
75281;HTU21D;63874;47.230;39.620;2023-06-19T07:19:38;25.57;36.20
75281;HTU21D;63874;47.230;39.620;2023-06-19T07:22:12;25.64;36.05
75281;HTU21D;63874;47.230;39.620;2023-06-19T07:24:40;25.67;35.61
75281;HTU21D;63874;47.230;39.620;2023-06-19T07:27:06;25.71;35.02
75281;HTU21D;63874;47.230;39.620;2023-06-19T07:29:32;25.71;35.47
75281;HTU21D;63874;47.230;39.620;2023-06-19T07:31:58;25.77;35.78
75281;HTU21D;63874;47.230;39.620;2023-06-19T07:34:38;25.86;35.22
75281;HTU21D;63874;47.230;39.620;2023-06-19T07:37:04;25.88;35.27
75281;HTU21D;63874;47.230;39.620;2023-06-19T07:39:30;25.90;35.53
75281;HTU21D;63874;47.230;39.620;2023-06-19T07:41:56;25.95;35.59
75281;HTU21D;63874;47.230;39.620;2023-06-19T07:44:22;26.03;34.44
75281;HTU21D;63874;47.230;39.620;2023-06-19T07:46:48;26.03;34.38
75281;HTU21D;63874;47.230;39.620;2023-06-19T07:49:36;26.09;34.16
75281;HTU21D;63874;47.230;39.620;2023-06-19T07:52:03;26.13;33.87
75281;HTU21D;63874;47.230;39.620;2023-06-19T07:54:29;26.21;34.33
75281;HTU21D;63874;47.230;39.620;2023-06-19T07:56:55;26.27;33.81
75281;HTU21D;63874;47.230;39.620;2023-06-19T07:59:22;26.31;34.49
75281;HTU21D;63874;47.230;39.620;2023-06-19T08:01:48;26.36;34.22
75281;HTU21D;63874;47.230;39.620;2023-06-19T08:04:14;26.38;34.20
75281;HTU21D;63874;47.230;39.620;2023-06-19T08:06:40;26.42;34.21
75281;HTU21D;63874;47.230;39.620;2023-06-19T08:09:06;26.46;34.05
75281;HTU21D;63874;47.230;39.620;2023-06-19T08:11:32;26.49;34.30
75281;HTU21D;63874;47.230;39.620;2023-06-19T08:13:57;26.52;34.18
75281;HTU21D;63874;47.230;39.620;2023-06-19T08:16:25;26.54;33.49
75281;HTU21D;63874;47.230;39.620;2023-06-19T08:18:51;26.56;33.19
75281;HTU21D;63874;47.230;39.620;2023-06-19T08:21:17;26.58;33.57
75281;HTU21D;63874;47.230;39.620;2023-06-19T08:23:43;26.64;32.86
75281;HTU21D;63874;47.230;39.620;2023-06-19T08:26:10;26.72;32.58
75281;HTU21D;63874;47.230;39.620;2023-06-19T08:28:37;26.73;32.72
75281;HTU21D;63874;47.230;39.620;2023-06-19T08:31:03;26.79;33.07
75281;HTU21D;63874;47.230;39.620;2023-06-19T08:33:29;26.86;32.70
75281;HTU21D;63874;47.230;39.620;2023-06-19T08:35:54;26.93;32.33
75281;HTU21D;63874;47.230;39.620;2023-06-19T08:38:20;26.99;31.07
75281;HTU21D;63874;47.230;39.620;2023-06-19T08:40:46;26.95;31.54
75281;HTU21D;63874;47.230;39.620;2023-06-19T08:43:12;26.97;31.39
75281;HTU21D;63874;47.230;39.620;2023-06-19T08:45:42;26.95;31.51
75281;HTU21D;63874;47.230;39.620;2023-06-19T08:48:13;26.96;31.49
75281;HTU21D;63874;47.230;39.620;2023-06-19T08:50:39;27.00;32.10
75281;HTU21D;63874;47.230;39.620;2023-06-19T08:53:06;27.09;31.18
75281;HTU21D;63874;47.230;39.620;2023-06-19T08:55:32;27.15;31.60
75281;HTU21D;63874;47.230;39.620;2023-06-19T08:57:59;27.24;31.46
75281;HTU21D;63874;47.230;39.620;2023-06-19T09:00:29;27.28;31.64
75281;HTU21D;63874;47.230;39.620;2023-06-19T09:03:00;27.34;30.45
75281;HTU21D;63874;47.230;39.620;2023-06-19T09:05:27;27.36;30.55
75281;HTU21D;63874;47.230;39.620;2023-06-19T09:07:58;27.40;31.29
75281;HTU21D;63874;47.230;39.620;2023-06-19T09:10:27;27.52;30.25
75281;HTU21D;63874;47.230;39.620;2023-06-19T09:13:03;27.56;30.65
75281;HTU21D;63874;47.230;39.620;2023-06-19T09:15:31;27.67;30.20
75281;HTU21D;63874;47.230;39.620;2023-06-19T09:18:09;27.75;30.59
75281;HTU21D;63874;47.230;39.620;2023-06-19T09:20:38;28.27;30.05
75281;HTU21D;63874;47.230;39.620;2023-06-19T09:23:07;29.44;28.32
75281;HTU21D;63874;47.230;39.620;2023-06-19T09:25:46;30.82;26.94
75281;HTU21D;63874;47.230;39.620;2023-06-19T09:28:27;32.59;25.18
75281;HTU21D;63874;47.230;39.620;2023-06-19T09:30:54;34.21;21.98
75281;HTU21D;63874;47.230;39.620;2023-06-19T09:33:20;35.28;20.99
75281;HTU21D;63874;47.230;39.620;2023-06-19T09:35:49;35.87;20.07
75281;HTU21D;63874;47.230;39.620;2023-06-19T09:38:17;36.77;19.45
75281;HTU21D;63874;47.230;39.620;2023-06-19T09:40:47;37.69;17.64
75281;HTU21D;63874;47.230;39.620;2023-06-19T09:43:19;38.74;16.97
75281;HTU21D;63874;47.230;39.620;2023-06-19T09:45:48;40.00;15.42
75281;HTU21D;63874;47.230;39.620;2023-06-19T09:48:27;40.31;14.48
75281;HTU21D;63874;47.230;39.620;2023-06-19T09:50:57;40.40;14.00
75281;HTU21D;63874;47.230;39.620;2023-06-19T09:53:25;39.65;13.71
75281;HTU21D;63874;47.230;39.620;2023-06-19T09:55:51;39.44;14.78
75281;HTU21D;63874;47.230;39.620;2023-06-19T09:58:20;40.18;14.39
75281;HTU21D;63874;47.230;39.620;2023-06-19T10:01:10;40.21;13.91
75281;HTU21D;63874;47.230;39.620;2023-06-19T10:03:39;40.58;13.76
75281;HTU21D;63874;47.230;39.620;2023-06-19T10:06:06;41.15;13.04
75281;HTU21D;63874;47.230;39.620;2023-06-19T10:08:40;41.10;12.51
75281;HTU21D;63874;47.230;39.620;2023-06-19T10:11:06;40.77;13.13
75281;HTU21D;63874;47.230;39.620;2023-06-19T10:13:37;41.13;13.04
75281;HTU21D;63874;47.230;39.620;2023-06-19T10:16:07;41.04;12.16
75281;HTU21D;63874;47.230;39.620;2023-06-19T10:18:44;40.50;13.11
75281;HTU21D;63874;47.230;39.620;2023-06-19T10:21:21;40.51;13.14
75281;HTU21D;63874;47.230;39.620;2023-06-19T10:23:57;40.77;13.13
75281;HTU21D;63874;47.230;39.620;2023-06-19T10:26:33;41.10;12.35
75281;HTU21D;63874;47.230;39.620;2023-06-19T10:29:00;41.26;12.05
75281;HTU21D;63874;47.230;39.620;2023-06-19T10:31:26;41.33;12.38
75281;HTU21D;63874;47.230;39.620;2023-06-19T10:33:54;41.93;11.59
75281;HTU21D;63874;47.230;39.620;2023-06-19T10:36:22;41.74;11.93
75281;HTU21D;63874;47.230;39.620;2023-06-19T10:38:49;42.18;11.39
75281;HTU21D;63874;47.230;39.620;2023-06-19T10:41:19;42.52;11.08
75281;HTU21D;63874;47.230;39.620;2023-06-19T10:46:33;41.95;11.97
75281;HTU21D;63874;47.230;39.620;2023-06-19T10:49:17;42.32;11.56
75281;HTU21D;63874;47.230;39.620;2023-06-19T10:51:43;42.58;10.63
75281;HTU21D;63874;47.230;39.620;2023-06-19T10:54:09;42.55;10.72
75281;HTU21D;63874;47.230;39.620;2023-06-19T10:56:35;42.23;10.78
75281;HTU21D;63874;47.230;39.620;2023-06-19T10:59:04;41.90;11.78
75281;HTU21D;63874;47.230;39.620;2023-06-19T11:01:36;42.28;10.91
75281;HTU21D;63874;47.230;39.620;2023-06-19T11:04:07;42.37;10.88
75281;HTU21D;63874;47.230;39.620;2023-06-19T11:06:34;42.25;10.95
75281;HTU21D;63874;47.230;39.620;2023-06-19T11:09:00;41.71;11.46
75281;HTU21D;63874;47.230;39.620;2023-06-19T11:11:40;41.15;12.23
75281;HTU21D;63874;47.230;39.620;2023-06-19T11:14:07;41.52;12.10
75281;HTU21D;63874;47.230;39.620;2023-06-19T11:16:34;41.72;11.84
75281;HTU21D;63874;47.230;39.620;2023-06-19T11:19:07;41.95;10.97
75281;HTU21D;63874;47.230;39.620;2023-06-19T11:21:36;41.85;10.94
75281;HTU21D;63874;47.230;39.620;2023-06-19T11:24:11;41.95;11.12
75281;HTU21D;63874;47.230;39.620;2023-06-19T11:26:41;41.74;11.33
75281;HTU21D;63874;47.230;39.620;2023-06-19T11:29:19;41.55;11.89
75281;HTU21D;63874;47.230;39.620;2023-06-19T11:31:46;41.70;11.91
75281;HTU21D;63874;47.230;39.620;2023-06-19T11:34:13;41.74;12.23
75281;HTU21D;63874;47.230;39.620;2023-06-19T11:36:41;42.39;11.83
75281;HTU21D;63874;47.230;39.620;2023-06-19T11:39:12;42.83;11.01
75281;HTU21D;63874;47.230;39.620;2023-06-19T11:41:39;43.03;10.72
75281;HTU21D;63874;47.230;39.620;2023-06-19T11:44:10;42.66;11.06
75281;HTU21D;63874;47.230;39.620;2023-06-19T11:46:37;42.32;11.50
75281;HTU21D;63874;47.230;39.620;2023-06-19T11:49:17;42.41;10.91
75281;HTU21D;63874;47.230;39.620;2023-06-19T11:51:46;42.37;10.95
75281;HTU21D;63874;47.230;39.620;2023-06-19T11:54:14;42.21;10.94
75281;HTU21D;63874;47.230;39.620;2023-06-19T11:56:50;42.00;11.09
75281;HTU21D;63874;47.230;39.620;2023-06-19T11:59:16;42.31;11.18
75281;HTU21D;63874;47.230;39.620;2023-06-19T12:01:42;42.76;11.02
75281;HTU21D;63874;47.230;39.620;2023-06-19T12:04:15;42.96;10.99
75281;HTU21D;63874;47.230;39.620;2023-06-19T12:06:41;42.91;10.27
75281;HTU21D;63874;47.230;39.620;2023-06-19T12:09:07;42.69;10.82
75281;HTU21D;63874;47.230;39.620;2023-06-19T12:11:33;42.83;10.64
75281;HTU21D;63874;47.230;39.620;2023-06-19T12:13:59;42.50;10.66
75281;HTU21D;63874;47.230;39.620;2023-06-19T12:16:25;42.21;11.00
75281;HTU21D;63874;47.230;39.620;2023-06-19T12:18:58;42.28;10.91
75281;HTU21D;63874;47.230;39.620;2023-06-19T12:21:24;42.11;11.08
75281;HTU21D;63874;47.230;39.620;2023-06-19T12:23:50;42.02;11.49
75281;HTU21D;63874;47.230;39.620;2023-06-19T12:26:21;42.00;11.47
75281;HTU21D;63874;47.230;39.620;2023-06-19T12:28:50;41.91;11.81
75281;HTU21D;63874;47.230;39.620;2023-06-19T12:31:22;42.45;11.37
75281;HTU21D;63874;47.230;39.620;2023-06-19T12:33:47;43.13;10.91
75281;HTU21D;63874;47.230;39.620;2023-06-19T12:36:16;43.34;10.48
75281;HTU21D;63874;47.230;39.620;2023-06-19T12:38:42;43.46;10.24
75281;HTU21D;63874;47.230;39.620;2023-06-19T12:41:08;43.54;10.14
75281;HTU21D;63874;47.230;39.620;2023-06-19T12:43:34;43.38;9.76
75281;HTU21D;63874;47.230;39.620;2023-06-19T12:46:00;42.94;10.27
75281;HTU21D;63874;47.230;39.620;2023-06-19T12:48:32;42.92;10.35
75281;HTU21D;63874;47.230;39.620;2023-06-19T12:50:58;42.16;10.77
75281;HTU21D;63874;47.230;39.620;2023-06-19T12:53:24;41.52;11.73
75281;HTU21D;63874;47.230;39.620;2023-06-19T12:55:56;41.72;11.88
75281;HTU21D;63874;47.230;39.620;2023-06-19T12:58:28;42.26;11.36
75281;HTU21D;63874;47.230;39.620;2023-06-19T13:00:54;41.41;11.36
75281;HTU21D;63874;47.230;39.620;2023-06-19T13:03:19;39.40;12.88
75281;HTU21D;63874;47.230;39.620;2023-06-19T13:05:46;37.55;14.84
75281;HTU21D;63874;47.230;39.620;2023-06-19T13:08:12;35.79;16.71
75281;HTU21D;63874;47.230;39.620;2023-06-19T13:10:39;34.41;18.25
75281;HTU21D;63874;47.230;39.620;2023-06-19T13:13:06;33.43;19.43
75281;HTU21D;63874;47.230;39.620;2023-06-19T13:15:32;32.63;20.45
75281;HTU21D;63874;47.230;39.620;2023-06-19T13:17:59;31.96;21.40
75281;HTU21D;63874;47.230;39.620;2023-06-19T13:20:25;31.40;22.21
75281;HTU21D;63874;47.230;39.620;2023-06-19T13:22:51;30.86;23.09
75281;HTU21D;63874;47.230;39.620;2023-06-19T13:25:18;30.41;23.82
75281;HTU21D;63874;47.230;39.620;2023-06-19T13:27:44;30.13;24.45
75281;HTU21D;63874;47.230;39.620;2023-06-19T13:30:11;29.95;24.84
75281;HTU21D;63874;47.230;39.620;2023-06-19T13:32:37;30.05;24.89
75281;HTU21D;63874;47.230;39.620;2023-06-19T13:35:05;30.30;24.82
75281;HTU21D;63874;47.230;39.620;2023-06-19T13:37:31;30.18;24.90
75281;HTU21D;63874;47.230;39.620;2023-06-19T13:39:59;29.89;25.29
75281;HTU21D;63874;47.230;39.620;2023-06-19T13:42:25;29.57;25.72
75281;HTU21D;63874;47.230;39.620;2023-06-19T13:44:52;29.29;26.26
75281;HTU21D;63874;47.230;39.620;2023-06-19T13:47:31;29.04;26.75
75281;HTU21D;63874;47.230;39.620;2023-06-19T13:49:57;28.78;27.09
75281;HTU21D;63874;47.230;39.620;2023-06-19T13:52:23;28.63;27.49
75281;HTU21D;63874;47.230;39.620;2023-06-19T13:55:05;28.46;27.96
75281;HTU21D;63874;47.230;39.620;2023-06-19T13:57:30;28.33;28.33
75281;HTU21D;63874;47.230;39.620;2023-06-19T13:59:56;28.23;28.61
75281;HTU21D;63874;47.230;39.620;2023-06-19T14:02:22;28.14;28.68
75281;HTU21D;63874;47.230;39.620;2023-06-19T14:04:48;28.02;28.78
75281;HTU21D;63874;47.230;39.620;2023-06-19T14:07:14;27.93;29.10
75281;HTU21D;63874;47.230;39.620;2023-06-19T14:09:42;27.87;29.06
75281;HTU21D;63874;47.230;39.620;2023-06-19T14:12:08;27.80;29.01
75281;HTU21D;63874;47.230;39.620;2023-06-19T14:14:34;27.74;29.06
75281;HTU21D;63874;47.230;39.620;2023-06-19T14:17:01;27.66;29.10
75281;HTU21D;63874;47.230;39.620;2023-06-19T14:19:26;27.59;29.35
75281;HTU21D;63874;47.230;39.620;2023-06-19T14:21:54;27.55;29.61
75281;HTU21D;63874;47.230;39.620;2023-06-19T14:24:20;27.49;29.81
75281;HTU21D;63874;47.230;39.620;2023-06-19T14:26:46;27.44;29.82
75281;HTU21D;63874;47.230;39.620;2023-06-19T14:29:12;27.40;29.77
75281;HTU21D;63874;47.230;39.620;2023-06-19T14:31:40;27.35;29.94
75281;HTU21D;63874;47.230;39.620;2023-06-19T14:34:06;27.27;30.16
75281;HTU21D;63874;47.230;39.620;2023-06-19T14:36:50;27.20;30.26
75281;HTU21D;63874;47.230;39.620;2023-06-19T14:39:15;27.14;30.28
75281;HTU21D;63874;47.230;39.620;2023-06-19T14:41:42;27.08;30.87
75281;HTU21D;63874;47.230;39.620;2023-06-19T14:44:07;27.04;31.07
75281;HTU21D;63874;47.230;39.620;2023-06-19T14:46:33;26.99;31.01
75281;HTU21D;63874;47.230;39.620;2023-06-19T14:49:11;26.97;30.75
75281;HTU21D;63874;47.230;39.620;2023-06-19T14:51:38;26.95;31.18
75281;HTU21D;63874;47.230;39.620;2023-06-19T14:54:04;26.91;31.41
75281;HTU21D;63874;47.230;39.620;2023-06-19T14:56:30;26.85;31.45
75281;HTU21D;63874;47.230;39.620;2023-06-19T14:58:56;26.81;31.48
75281;HTU21D;63874;47.230;39.620;2023-06-19T15:01:22;26.80;31.44
75281;HTU21D;63874;47.230;39.620;2023-06-19T15:03:47;26.76;31.61
75281;HTU21D;63874;47.230;39.620;2023-06-19T15:06:13;26.73;31.72
75281;HTU21D;63874;47.230;39.620;2023-06-19T15:08:39;26.71;31.88
75281;HTU21D;63874;47.230;39.620;2023-06-19T15:11:05;26.68;31.94